sensor_id;sensor_type;location;lat;lon;timestamp;temperature;humidity
19555;DHT22;9924;50.828;6.440;2022-12-24T00:02:04;10.50;99.90
19555;DHT22;9924;50.828;6.440;2022-12-24T00:04:49;10.60;99.90
19555;DHT22;9924;50.828;6.440;2022-12-24T00:07:33;10.60;99.90
19555;DHT22;9924;50.828;6.440;2022-12-24T00:10:18;10.60;99.90
19555;DHT22;9924;50.828;6.440;2022-12-24T00:13:02;10.60;99.90
19555;DHT22;9924;50.828;6.440;2022-12-24T00:15:47;10.70;99.90
19555;DHT22;9924;50.828;6.440;2022-12-24T00:18:31;10.70;99.90
19555;DHT22;9924;50.828;6.440;2022-12-24T00:21:16;10.70;99.90
19555;DHT22;9924;50.828;6.440;2022-12-24T00:24:00;10.70;99.90
19555;DHT22;9924;50.828;6.440;2022-12-24T00:26:47;10.80;99.90
19555;DHT22;9924;50.828;6.440;2022-12-24T00:29:32;10.70;99.90
19555;DHT22;9924;50.828;6.440;2022-12-24T00:32:16;10.70;99.90
19555;DHT22;9924;50.828;6.440;2022-12-24T00:35:00;10.70;99.90
19555;DHT22;9924;50.828;6.440;2022-12-24T00:37:48;10.70;99.90
19555;DHT22;9924;50.828;6.440;2022-12-24T00:40:33;10.60;99.90
19555;DHT22;9924;50.828;6.440;2022-12-24T00:43:17;10.60;99.90
19555;DHT22;9924;50.828;6.440;2022-12-24T00:46:02;10.50;99.90
19555;DHT22;9924;50.828;6.440;2022-12-24T00:48:46;10.50;99.90
19555;DHT22;9924;50.828;6.440;2022-12-24T00:51:31;10.50;99.90
19555;DHT22;9924;50.828;6.440;2022-12-24T00:54:16;10.50;99.90
19555;DHT22;9924;50.828;6.440;2022-12-24T00:57:00;10.50;99.90
19555;DHT22;9924;50.828;6.440;2022-12-24T00:59:44;10.50;99.90
19555;DHT22;9924;50.828;6.440;2022-12-24T01:02:29;10.50;99.90
19555;DHT22;9924;50.828;6.440;2022-12-24T01:05:13;10.50;99.90
19555;DHT22;9924;50.828;6.440;2022-12-24T01:07:58;10.40;99.90
19555;DHT22;9924;50.828;6.440;2022-12-24T01:10:42;10.40;99.90
19555;DHT22;9924;50.828;6.440;2022-12-24T01:13:27;10.40;99.90
19555;DHT22;9924;50.828;6.440;2022-12-24T01:16:17;10.30;99.90
19555;DHT22;9924;50.828;6.440;2022-12-24T01:19:02;10.40;99.90
19555;DHT22;9924;50.828;6.440;2022-12-24T01:21:47;10.40;99.90
19555;DHT22;9924;50.828;6.440;2022-12-24T01:24:31;10.30;99.90
19555;DHT22;9924;50.828;6.440;2022-12-24T01:27:16;10.30;99.90
19555;DHT22;9924;50.828;6.440;2022-12-24T01:30:00;10.30;99.90
19555;DHT22;9924;50.828;6.440;2022-12-24T01:32:45;10.30;99.90
19555;DHT22;9924;50.828;6.440;2022-12-24T01:35:29;10.30;99.90
19555;DHT22;9924;50.828;6.440;2022-12-24T01:38:14;10.30;99.90
19555;DHT22;9924;50.828;6.440;2022-12-24T01:40:58;10.20;99.90
19555;DHT22;9924;50.828;6.440;2022-12-24T01:47:20;10.20;99.90
19555;DHT22;9924;50.828;6.440;2022-12-24T01:50:14;10.20;99.90
19555;DHT22;9924;50.828;6.440;2022-12-24T01:53:01;10.10;99.90
19555;DHT22;9924;50.828;6.440;2022-12-24T01:55:46;10.10;99.90
19555;DHT22;9924;50.828;6.440;2022-12-24T01:58:33;10.10;99.90
19555;DHT22;9924;50.828;6.440;2022-12-24T02:01:18;10.10;99.90
19555;DHT22;9924;50.828;6.440;2022-12-24T02:04:11;10.10;99.90
19555;DHT22;9924;50.828;6.440;2022-12-24T02:06:58;10.00;99.90
19555;DHT22;9924;50.828;6.440;2022-12-24T02:09:43;10.00;99.90
19555;DHT22;9924;50.828;6.440;2022-12-24T02:12:30;10.00;99.90
19555;DHT22;9924;50.828;6.440;2022-12-24T02:15:16;10.00;99.90
19555;DHT22;9924;50.828;6.440;2022-12-24T02:18:13;10.00;99.90
19555;DHT22;9924;50.828;6.440;2022-12-24T02:30:10;10.10;99.90
19555;DHT22;9924;50.828;6.440;2022-12-24T02:33:07;10.10;99.90
19555;DHT22;9924;50.828;6.440;2022-12-24T02:36:24;10.10;99.90
19555;DHT22;9924;50.828;6.440;2022-12-24T02:39:19;10.00;99.90
19555;DHT22;9924;50.828;6.440;2022-12-24T02:42:07;10.00;99.90
19555;DHT22;9924;50.828;6.440;2022-12-24T02:44:57;10.00;99.90
19555;DHT22;9924;50.828;6.440;2022-12-24T02:47:45;10.00;99.90
19555;DHT22;9924;50.828;6.440;2022-12-24T02:50:31;10.00;99.90
19555;DHT22;9924;50.828;6.440;2022-12-24T02:53:15;9.90;99.90
19555;DHT22;9924;50.828;6.440;2022-12-24T03:05:07;9.70;99.90
19555;DHT22;9924;50.828;6.440;2022-12-24T03:08:05;9.70;99.90
19555;DHT22;9924;50.828;6.440;2022-12-24T03:11:01;9.70;99.90
19555;DHT22;9924;50.828;6.440;2022-12-24T03:13:50;9.70;99.90
19555;DHT22;9924;50.828;6.440;2022-12-24T03:16:36;9.70;99.90
19555;DHT22;9924;50.828;6.440;2022-12-24T03:19:20;9.70;99.90
19555;DHT22;9924;50.828;6.440;2022-12-24T03:22:08;9.60;99.90
19555;DHT22;9924;50.828;6.440;2022-12-24T03:24:54;9.60;99.90
19555;DHT22;9924;50.828;6.440;2022-12-24T03:27:39;9.60;99.90
19555;DHT22;9924;50.828;6.440;2022-12-24T03:30:25;9.50;99.90
19555;DHT22;9924;50.828;6.440;2022-12-24T03:33:11;9.50;99.90
19555;DHT22;9924;50.828;6.440;2022-12-24T03:35:55;9.50;99.90
19555;DHT22;9924;50.828;6.440;2022-12-24T03:38:39;9.40;99.90
19555;DHT22;9924;50.828;6.440;2022-12-24T03:41:24;9.40;99.90
19555;DHT22;9924;50.828;6.440;2022-12-24T03:44:08;9.30;99.90
19555;DHT22;9924;50.828;6.440;2022-12-24T03:46:52;9.30;99.90
19555;DHT22;9924;50.828;6.440;2022-12-24T03:49:36;9.30;99.90
19555;DHT22;9924;50.828;6.440;2022-12-24T03:52:21;9.20;99.90
19555;DHT22;9924;50.828;6.440;2022-12-24T03:55:05;9.10;99.90
19555;DHT22;9924;50.828;6.440;2022-12-24T03:57:50;9.10;99.90
19555;DHT22;9924;50.828;6.440;2022-12-24T04:00:34;9.10;99.90
19555;DHT22;9924;50.828;6.440;2022-12-24T04:03:19;9.00;99.90
19555;DHT22;9924;50.828;6.440;2022-12-24T04:06:12;9.00;99.90
19555;DHT22;9924;50.828;6.440;2022-12-24T04:08:57;8.90;99.90
19555;DHT22;9924;50.828;6.440;2022-12-24T04:11:45;8.90;99.90
19555;DHT22;9924;50.828;6.440;2022-12-24T04:14:29;8.90;99.90
19555;DHT22;9924;50.828;6.440;2022-12-24T04:17:13;8.90;99.90
19555;DHT22;9924;50.828;6.440;2022-12-24T04:19:58;8.80;99.90
19555;DHT22;9924;50.828;6.440;2022-12-24T04:22:42;8.90;99.90
19555;DHT22;9924;50.828;6.440;2022-12-24T04:25:28;8.90;99.90
19555;DHT22;9924;50.828;6.440;2022-12-24T04:28:12;9.00;99.90
19555;DHT22;9924;50.828;6.440;2022-12-24T04:31:02;9.10;99.90
19555;DHT22;9924;50.828;6.440;2022-12-24T04:33:49;9.20;99.90
19555;DHT22;9924;50.828;6.440;2022-12-24T04:36:34;9.20;99.90
19555;DHT22;9924;50.828;6.440;2022-12-24T04:39:19;9.40;99.90
19555;DHT22;9924;50.828;6.440;2022-12-24T04:42:03;9.50;99.90
19555;DHT22;9924;50.828;6.440;2022-12-24T04:44:47;9.50;99.90
19555;DHT22;9924;50.828;6.440;2022-12-24T04:47:32;9.60;99.90
19555;DHT22;9924;50.828;6.440;2022-12-24T04:50:16;9.70;99.90
19555;DHT22;9924;50.828;6.440;2022-12-24T04:53:00;9.70;99.90
19555;DHT22;9924;50.828;6.440;2022-12-24T04:55:45;9.70;99.90
19555;DHT22;9924;50.828;6.440;2022-12-24T04:58:29;9.70;99.90
19555;DHT22;9924;50.828;6.440;2022-12-24T05:01:17;9.70;99.90
19555;DHT22;9924;50.828;6.440;2022-12-24T05:04:02;9.70;99.90
19555;DHT22;9924;50.828;6.440;2022-12-24T05:06:46;9.80;99.90
19555;DHT22;9924;50.828;6.440;2022-12-24T05:09:31;9.80;99.90
19555;DHT22;9924;50.828;6.440;2022-12-24T05:12:15;9.80;99.90
19555;DHT22;9924;50.828;6.440;2022-12-24T05:14:59;9.80;99.90
19555;DHT22;9924;50.828;6.440;2022-12-24T05:17:44;9.80;99.90
19555;DHT22;9924;50.828;6.440;2022-12-24T05:20:28;9.80;99.90
19555;DHT22;9924;50.828;6.440;2022-12-24T05:23:20;9.80;99.90
19555;DHT22;9924;50.828;6.440;2022-12-24T05:26:30;9.90;99.90
19555;DHT22;9924;50.828;6.440;2022-12-24T05:29:15;9.90;99.90
19555;DHT22;9924;50.828;6.440;2022-12-24T05:32:00;9.90;99.90
19555;DHT22;9924;50.828;6.440;2022-12-24T05:34:44;9.90;99.90
19555;DHT22;9924;50.828;6.440;2022-12-24T05:37:29;9.80;99.90
19555;DHT22;9924;50.828;6.440;2022-12-24T05:40:13;9.80;99.90
19555;DHT22;9924;50.828;6.440;2022-12-24T05:42:57;9.90;99.90
19555;DHT22;9924;50.828;6.440;2022-12-24T05:45:41;9.90;99.90
19555;DHT22;9924;50.828;6.440;2022-12-24T05:48:26;9.90;99.90
19555;DHT22;9924;50.828;6.440;2022-12-24T05:51:12;9.90;99.90
19555;DHT22;9924;50.828;6.440;2022-12-24T05:53:57;9.90;99.90
19555;DHT22;9924;50.828;6.440;2022-12-24T05:56:42;9.90;99.90
19555;DHT22;9924;50.828;6.440;2022-12-24T05:59:27;9.90;99.90
19555;DHT22;9924;50.828;6.440;2022-12-24T06:02:11;10.00;99.90
19555;DHT22;9924;50.828;6.440;2022-12-24T06:04:56;10.00;99.90
19555;DHT22;9924;50.828;6.440;2022-12-24T06:07:40;10.10;99.90
19555;DHT22;9924;50.828;6.440;2022-12-24T06:10:24;10.00;99.90
19555;DHT22;9924;50.828;6.440;2022-12-24T06:13:09;10.10;99.90
19555;DHT22;9924;50.828;6.440;2022-12-24T06:15:54;10.10;99.90
19555;DHT22;9924;50.828;6.440;2022-12-24T06:18:40;10.10;99.90
19555;DHT22;9924;50.828;6.440;2022-12-24T06:21:25;10.10;99.90
19555;DHT22;9924;50.828;6.440;2022-12-24T06:24:09;10.10;99.90
19555;DHT22;9924;50.828;6.440;2022-12-24T06:26:54;10.10;99.90
19555;DHT22;9924;50.828;6.440;2022-12-24T06:29:38;10.10;99.90
19555;DHT22;9924;50.828;6.440;2022-12-24T06:32:22;10.10;99.90
19555;DHT22;9924;50.828;6.440;2022-12-24T06:35:07;10.10;99.90
19555;DHT22;9924;50.828;6.440;2022-12-24T06:37:51;10.00;99.90
19555;DHT22;9924;50.828;6.440;2022-12-24T06:40:39;10.00;99.90
19555;DHT22;9924;50.828;6.440;2022-12-24T06:43:23;10.00;99.90
19555;DHT22;9924;50.828;6.440;2022-12-24T06:46:08;10.00;99.90
19555;DHT22;9924;50.828;6.440;2022-12-24T06:48:52;10.00;99.90
19555;DHT22;9924;50.828;6.440;2022-12-24T06:51:37;10.00;99.90
19555;DHT22;9924;50.828;6.440;2022-12-24T06:54:22;10.00;99.90
19555;DHT22;9924;50.828;6.440;2022-12-24T06:57:09;9.90;99.90
19555;DHT22;9924;50.828;6.440;2022-12-24T06:59:53;10.00;99.90
19555;DHT22;9924;50.828;6.440;2022-12-24T07:02:44;10.00;99.90
19555;DHT22;9924;50.828;6.440;2022-12-24T07:05:29;10.00;99.90
19555;DHT22;9924;50.828;6.440;2022-12-24T07:08:13;10.00;99.90
19555;DHT22;9924;50.828;6.440;2022-12-24T07:10:58;10.00;99.90
19555;DHT22;9924;50.828;6.440;2022-12-24T07:13:43;10.00;99.90
19555;DHT22;9924;50.828;6.440;2022-12-24T07:16:27;9.90;99.90
19555;DHT22;9924;50.828;6.440;2022-12-24T07:19:12;9.90;99.90
19555;DHT22;9924;50.828;6.440;2022-12-24T07:21:57;9.90;99.90
19555;DHT22;9924;50.828;6.440;2022-12-24T07:24:41;9.90;99.90
19555;DHT22;9924;50.828;6.440;2022-12-24T07:27:26;9.90;99.90
19555;DHT22;9924;50.828;6.440;2022-12-24T07:30:10;9.90;99.90
19555;DHT22;9924;50.828;6.440;2022-12-24T07:32:54;9.90;99.90
19555;DHT22;9924;50.828;6.440;2022-12-24T07:35:39;9.80;99.90
19555;DHT22;9924;50.828;6.440;2022-12-24T07:38:23;9.90;99.90
19555;DHT22;9924;50.828;6.440;2022-12-24T07:41:08;9.80;99.90
19555;DHT22;9924;50.828;6.440;2022-12-24T07:43:52;9.80;99.90
19555;DHT22;9924;50.828;6.440;2022-12-24T07:46:36;9.80;99.90
19555;DHT22;9924;50.828;6.440;2022-12-24T07:49:21;9.80;99.90
19555;DHT22;9924;50.828;6.440;2022-12-24T07:52:05;9.80;99.90
19555;DHT22;9924;50.828;6.440;2022-12-24T07:54:49;9.80;99.90
19555;DHT22;9924;50.828;6.440;2022-12-24T07:57:34;9.70;99.90
19555;DHT22;9924;50.828;6.440;2022-12-24T08:00:18;9.80;99.90
19555;DHT22;9924;50.828;6.440;2022-12-24T08:03:03;9.80;99.90
19555;DHT22;9924;50.828;6.440;2022-12-24T08:05:48;9.90;99.90
19555;DHT22;9924;50.828;6.440;2022-12-24T08:08:33;9.90;99.90
19555;DHT22;9924;50.828;6.440;2022-12-24T08:11:18;9.90;99.90
19555;DHT22;9924;50.828;6.440;2022-12-24T08:14:02;10.00;99.90
19555;DHT22;9924;50.828;6.440;2022-12-24T08:16:46;10.00;99.90
19555;DHT22;9924;50.828;6.440;2022-12-24T08:19:30;10.10;99.90
19555;DHT22;9924;50.828;6.440;2022-12-24T08:22:15;10.10;99.90
19555;DHT22;9924;50.828;6.440;2022-12-24T08:24:59;10.20;99.90
19555;DHT22;9924;50.828;6.440;2022-12-24T08:27:45;10.20;99.90
19555;DHT22;9924;50.828;6.440;2022-12-24T08:30:30;10.30;99.90
19555;DHT22;9924;50.828;6.440;2022-12-24T08:33:14;10.30;99.90
19555;DHT22;9924;50.828;6.440;2022-12-24T08:36:00;10.40;99.90
19555;DHT22;9924;50.828;6.440;2022-12-24T08:38:45;10.40;99.90
19555;DHT22;9924;50.828;6.440;2022-12-24T08:41:32;10.40;99.90
19555;DHT22;9924;50.828;6.440;2022-12-24T08:44:16;10.50;99.90
19555;DHT22;9924;50.828;6.440;2022-12-24T08:47:01;10.50;99.90
19555;DHT22;9924;50.828;6.440;2022-12-24T08:49:48;10.60;99.90
19555;DHT22;9924;50.828;6.440;2022-12-24T08:52:32;10.70;99.90
19555;DHT22;9924;50.828;6.440;2022-12-24T08:55:17;10.80;99.90
19555;DHT22;9924;50.828;6.440;2022-12-24T08:58:01;10.80;99.90
19555;DHT22;9924;50.828;6.440;2022-12-24T09:00:45;10.80;99.90
19555;DHT22;9924;50.828;6.440;2022-12-24T09:03:30;10.80;99.90
19555;DHT22;9924;50.828;6.440;2022-12-24T09:06:15;10.80;99.90
19555;DHT22;9924;50.828;6.440;2022-12-24T09:08:59;10.90;99.90
19555;DHT22;9924;50.828;6.440;2022-12-24T09:11:43;10.90;99.90
19555;DHT22;9924;50.828;6.440;2022-12-24T09:14:28;10.90;99.90
19555;DHT22;9924;50.828;6.440;2022-12-24T09:17:12;10.90;99.90
19555;DHT22;9924;50.828;6.440;2022-12-24T09:19:57;10.90;99.90
19555;DHT22;9924;50.828;6.440;2022-12-24T09:22:41;10.90;99.90
19555;DHT22;9924;50.828;6.440;2022-12-24T09:25:25;10.80;99.90
19555;DHT22;9924;50.828;6.440;2022-12-24T09:28:09;10.80;99.90
19555;DHT22;9924;50.828;6.440;2022-12-24T09:31:02;10.80;99.90
19555;DHT22;9924;50.828;6.440;2022-12-24T09:33:49;10.80;99.90
19555;DHT22;9924;50.828;6.440;2022-12-24T09:36:33;10.80;99.90
19555;DHT22;9924;50.828;6.440;2022-12-24T09:39:18;10.90;99.90
19555;DHT22;9924;50.828;6.440;2022-12-24T09:48:02;11.10;99.90
19555;DHT22;9924;50.828;6.440;2022-12-24T09:53:56;11.20;99.90
19555;DHT22;9924;50.828;6.440;2022-12-24T09:56:45;11.20;99.90
19555;DHT22;9924;50.828;6.440;2022-12-24T09:59:59;11.20;99.90
19555;DHT22;9924;50.828;6.440;2022-12-24T10:02:44;11.20;99.90
19555;DHT22;9924;50.828;6.440;2022-12-24T10:05:39;11.20;99.90
19555;DHT22;9924;50.828;6.440;2022-12-24T10:08:33;11.20;99.90
19555;DHT22;9924;50.828;6.440;2022-12-24T10:11:35;11.10;99.90
19555;DHT22;9924;50.828;6.440;2022-12-24T10:14:54;11.10;99.90
19555;DHT22;9924;50.828;6.440;2022-12-24T10:23:54;11.10;99.90
19555;DHT22;9924;50.828;6.440;2022-12-24T10:27:11;11.10;99.90
19555;DHT22;9924;50.828;6.440;2022-12-24T10:30:05;11.20;99.90
19555;DHT22;9924;50.828;6.440;2022-12-24T10:32:51;11.20;99.90
19555;DHT22;9924;50.828;6.440;2022-12-24T10:35:40;11.20;99.90
19555;DHT22;9924;50.828;6.440;2022-12-24T10:38:26;11.20;99.90
19555;DHT22;9924;50.828;6.440;2022-12-24T10:41:12;11.30;99.90
19555;DHT22;9924;50.828;6.440;2022-12-24T10:43:58;11.30;99.90
19555;DHT22;9924;50.828;6.440;2022-12-24T10:46:43;11.30;99.90
19555;DHT22;9924;50.828;6.440;2022-12-24T10:50:04;11.30;99.90
19555;DHT22;9924;50.828;6.440;2022-12-24T10:52:50;11.40;99.90
19555;DHT22;9924;50.828;6.440;2022-12-24T10:55:38;11.30;99.90
19555;DHT22;9924;50.828;6.440;2022-12-24T10:58:22;11.40;99.90
19555;DHT22;9924;50.828;6.440;2022-12-24T11:01:07;11.40;99.90
19555;DHT22;9924;50.828;6.440;2022-12-24T11:04:01;11.40;99.90
19555;DHT22;9924;50.828;6.440;2022-12-24T11:09:41;11.50;99.90
19555;DHT22;9924;50.828;6.440;2022-12-24T11:12:39;11.60;99.90
19555;DHT22;9924;50.828;6.440;2022-12-24T11:15:31;11.60;99.90
19555;DHT22;9924;50.828;6.440;2022-12-24T11:18:20;11.60;99.90
19555;DHT22;9924;50.828;6.440;2022-12-24T11:21:05;11.60;99.90
19555;DHT22;9924;50.828;6.440;2022-12-24T11:23:53;11.60;99.90
19555;DHT22;9924;50.828;6.440;2022-12-24T11:26:40;11.60;99.90
19555;DHT22;9924;50.828;6.440;2022-12-24T11:29:27;11.60;99.90
19555;DHT22;9924;50.828;6.440;2022-12-24T11:32:20;11.60;99.90
19555;DHT22;9924;50.828;6.440;2022-12-24T11:35:06;11.60;99.90
19555;DHT22;9924;50.828;6.440;2022-12-24T11:38:08;11.60;99.90
19555;DHT22;9924;50.828;6.440;2022-12-24T11:41:17;11.60;99.90
19555;DHT22;9924;50.828;6.440;2022-12-24T11:44:02;11.80;99.90
19555;DHT22;9924;50.828;6.440;2022-12-24T11:46:50;12.20;99.90
19555;DHT22;9924;50.828;6.440;2022-12-24T11:49:39;12.40;99.90
19555;DHT22;9924;50.828;6.440;2022-12-24T11:52:24;12.30;99.90
19555;DHT22;9924;50.828;6.440;2022-12-24T11:58:33;12.10;99.90
19555;DHT22;9924;50.828;6.440;2022-12-24T12:04:12;11.80;99.90
19555;DHT22;9924;50.828;6.440;2022-12-24T12:07:02;11.70;99.90
19555;DHT22;9924;50.828;6.440;2022-12-24T12:10:16;11.60;99.90
19555;DHT22;9924;50.828;6.440;2022-12-24T12:13:04;11.70;99.90
19555;DHT22;9924;50.828;6.440;2022-12-24T12:15:52;11.80;99.90
19555;DHT22;9924;50.828;6.440;2022-12-24T12:18:42;12.00;99.90
19555;DHT22;9924;50.828;6.440;2022-12-24T12:21:36;12.00;99.90
19555;DHT22;9924;50.828;6.440;2022-12-24T12:24:25;12.10;99.90
19555;DHT22;9924;50.828;6.440;2022-12-24T12:27:45;12.00;99.90
19555;DHT22;9924;50.828;6.440;2022-12-24T12:30:31;12.00;99.90
19555;DHT22;9924;50.828;6.440;2022-12-24T12:33:24;12.00;99.90
19555;DHT22;9924;50.828;6.440;2022-12-24T12:36:11;12.40;99.90
19555;DHT22;9924;50.828;6.440;2022-12-24T12:38:57;13.00;99.90
19555;DHT22;9924;50.828;6.440;2022-12-24T12:51:08;14.30;99.90
19555;DHT22;9924;50.828;6.440;2022-12-24T12:54:05;15.00;99.90
19555;DHT22;9924;50.828;6.440;2022-12-24T12:56:54;15.30;99.90
19555;DHT22;9924;50.828;6.440;2022-12-24T12:59:58;15.60;99.90
19555;DHT22;9924;50.828;6.440;2022-12-24T13:12:13;15.90;99.90
19555;DHT22;9924;50.828;6.440;2022-12-24T13:18:31;16.50;99.90
19555;DHT22;9924;50.828;6.440;2022-12-24T13:21:20;16.30;99.90
19555;DHT22;9924;50.828;6.440;2022-12-24T13:29:56;16.00;99.90
19555;DHT22;9924;50.828;6.440;2022-12-24T13:32:51;15.80;99.90
19555;DHT22;9924;50.828;6.440;2022-12-24T13:35:58;15.70;99.90
19555;DHT22;9924;50.828;6.440;2022-12-24T13:38:56;15.50;99.90
19555;DHT22;9924;50.828;6.440;2022-12-24T13:41:48;15.30;99.90
19555;DHT22;9924;50.828;6.440;2022-12-24T13:44:33;15.00;99.90
19555;DHT22;9924;50.828;6.440;2022-12-24T13:47:19;14.60;99.90
19555;DHT22;9924;50.828;6.440;2022-12-24T13:50:22;14.00;99.90
19555;DHT22;9924;50.828;6.440;2022-12-24T13:53:41;13.50;99.90
19555;DHT22;9924;50.828;6.440;2022-12-24T13:56:30;13.10;99.90
19555;DHT22;9924;50.828;6.440;2022-12-24T13:59:35;12.80;99.90
19555;DHT22;9924;50.828;6.440;2022-12-24T14:02:21;12.60;99.90
19555;DHT22;9924;50.828;6.440;2022-12-24T14:05:14;12.40;99.90
19555;DHT22;9924;50.828;6.440;2022-12-24T14:08:02;12.20;99.90
19555;DHT22;9924;50.828;6.440;2022-12-24T14:16:49;11.80;99.90
19555;DHT22;9924;50.828;6.440;2022-12-24T14:19:42;11.80;99.90
19555;DHT22;9924;50.828;6.440;2022-12-24T14:22:38;11.80;99.90
19555;DHT22;9924;50.828;6.440;2022-12-24T14:25:25;11.80;99.90
19555;DHT22;9924;50.828;6.440;2022-12-24T14:28:14;11.80;99.90
19555;DHT22;9924;50.828;6.440;2022-12-24T14:31:03;11.60;99.90
19555;DHT22;9924;50.828;6.440;2022-12-24T14:33:48;11.60;99.90
19555;DHT22;9924;50.828;6.440;2022-12-24T14:36:34;11.60;99.90
19555;DHT22;9924;50.828;6.440;2022-12-24T14:39:33;11.60;99.90
19555;DHT22;9924;50.828;6.440;2022-12-24T14:45:46;11.60;99.90
19555;DHT22;9924;50.828;6.440;2022-12-24T14:48:54;11.60;99.90
19555;DHT22;9924;50.828;6.440;2022-12-24T14:55:27;11.50;99.90
19555;DHT22;9924;50.828;6.440;2022-12-24T14:58:32;11.50;99.90
19555;DHT22;9924;50.828;6.440;2022-12-24T15:01:24;11.50;99.90
19555;DHT22;9924;50.828;6.440;2022-12-24T15:06:54;11.60;99.90
19555;DHT22;9924;50.828;6.440;2022-12-24T15:09:40;11.50;99.90
19555;DHT22;9924;50.828;6.440;2022-12-24T15:12:26;11.40;99.90
19555;DHT22;9924;50.828;6.440;2022-12-24T15:15:15;11.20;99.90
19555;DHT22;9924;50.828;6.440;2022-12-24T15:18:02;11.10;99.90
19555;DHT22;9924;50.828;6.440;2022-12-24T15:20:51;11.10;99.90
19555;DHT22;9924;50.828;6.440;2022-12-24T15:23:48;11.10;99.90
19555;DHT22;9924;50.828;6.440;2022-12-24T15:26:34;11.10;99.90
19555;DHT22;9924;50.828;6.440;2022-12-24T15:29:28;11.00;99.90
19555;DHT22;9924;50.828;6.440;2022-12-24T15:32:15;11.00;99.90
19555;DHT22;9924;50.828;6.440;2022-12-24T15:35:01;10.90;99.90
19555;DHT22;9924;50.828;6.440;2022-12-24T15:37:45;10.90;99.90
19555;DHT22;9924;50.828;6.440;2022-12-24T15:40:30;10.90;99.90
19555;DHT22;9924;50.828;6.440;2022-12-24T15:43:18;10.80;99.90
19555;DHT22;9924;50.828;6.440;2022-12-24T15:46:02;10.80;99.90
19555;DHT22;9924;50.828;6.440;2022-12-24T15:48:47;10.80;99.90
19555;DHT22;9924;50.828;6.440;2022-12-24T15:51:36;10.80;99.90
19555;DHT22;9924;50.828;6.440;2022-12-24T15:54:22;10.70;99.90
19555;DHT22;9924;50.828;6.440;2022-12-24T15:57:33;10.70;99.90
19555;DHT22;9924;50.828;6.440;2022-12-24T16:00:25;10.60;99.90
19555;DHT22;9924;50.828;6.440;2022-12-24T16:03:16;10.50;99.90
19555;DHT22;9924;50.828;6.440;2022-12-24T16:06:03;10.50;99.90
19555;DHT22;9924;50.828;6.440;2022-12-24T16:08:48;10.40;99.90
19555;DHT22;9924;50.828;6.440;2022-12-24T16:11:36;10.30;99.90
19555;DHT22;9924;50.828;6.440;2022-12-24T16:14:20;10.10;99.90
19555;DHT22;9924;50.828;6.440;2022-12-24T16:17:19;10.00;99.90
19555;DHT22;9924;50.828;6.440;2022-12-24T16:20:06;9.90;99.90
19555;DHT22;9924;50.828;6.440;2022-12-24T16:22:59;9.80;99.90
19555;DHT22;9924;50.828;6.440;2022-12-24T16:25:43;9.70;99.90
19555;DHT22;9924;50.828;6.440;2022-12-24T16:28:27;9.70;99.90
19555;DHT22;9924;50.828;6.440;2022-12-24T16:31:19;9.60;99.90
19555;DHT22;9924;50.828;6.440;2022-12-24T16:34:14;9.50;99.90
19555;DHT22;9924;50.828;6.440;2022-12-24T16:36:59;9.40;99.90
19555;DHT22;9924;50.828;6.440;2022-12-24T16:39:44;9.30;99.90
19555;DHT22;9924;50.828;6.440;2022-12-24T16:42:29;9.20;99.90
19555;DHT22;9924;50.828;6.440;2022-12-24T16:45:34;9.00;99.90
19555;DHT22;9924;50.828;6.440;2022-12-24T16:48:22;8.80;99.90
19555;DHT22;9924;50.828;6.440;2022-12-24T16:51:06;8.80;99.90
19555;DHT22;9924;50.828;6.440;2022-12-24T16:53:51;8.70;99.90
19555;DHT22;9924;50.828;6.440;2022-12-24T16:56:35;8.70;99.90
19555;DHT22;9924;50.828;6.440;2022-12-24T16:59:22;8.70;99.90
19555;DHT22;9924;50.828;6.440;2022-12-24T17:02:12;8.60;99.90
19555;DHT22;9924;50.828;6.440;2022-12-24T17:04:56;8.60;99.90
19555;DHT22;9924;50.828;6.440;2022-12-24T17:07:41;8.60;99.90
19555;DHT22;9924;50.828;6.440;2022-12-24T17:10:26;8.60;99.90
19555;DHT22;9924;50.828;6.440;2022-12-24T17:13:10;8.50;99.90
19555;DHT22;9924;50.828;6.440;2022-12-24T17:15:55;8.50;99.90
19555;DHT22;9924;50.828;6.440;2022-12-24T17:18:39;8.50;99.90
19555;DHT22;9924;50.828;6.440;2022-12-24T17:21:24;8.50;99.90
19555;DHT22;9924;50.828;6.440;2022-12-24T17:24:08;8.40;99.90
19555;DHT22;9924;50.828;6.440;2022-12-24T17:26:53;8.30;99.90
19555;DHT22;9924;50.828;6.440;2022-12-24T17:29:37;8.30;99.90
19555;DHT22;9924;50.828;6.440;2022-12-24T17:32:21;8.20;99.90
19555;DHT22;9924;50.828;6.440;2022-12-24T17:35:06;8.10;99.90
19555;DHT22;9924;50.828;6.440;2022-12-24T17:37:51;8.00;99.90
19555;DHT22;9924;50.828;6.440;2022-12-24T17:40:35;7.90;99.90
19555;DHT22;9924;50.828;6.440;2022-12-24T17:43:19;7.90;99.90
19555;DHT22;9924;50.828;6.440;2022-12-24T17:46:05;8.00;99.90
19555;DHT22;9924;50.828;6.440;2022-12-24T17:48:50;8.00;99.90
19555;DHT22;9924;50.828;6.440;2022-12-24T17:51:35;8.00;99.90
19555;DHT22;9924;50.828;6.440;2022-12-24T17:54:19;7.80;99.90
19555;DHT22;9924;50.828;6.440;2022-12-24T17:57:04;7.70;99.90
19555;DHT22;9924;50.828;6.440;2022-12-24T17:59:48;7.60;99.90
19555;DHT22;9924;50.828;6.440;2022-12-24T18:02:33;7.50;99.90
19555;DHT22;9924;50.828;6.440;2022-12-24T18:05:17;7.50;99.90
19555;DHT22;9924;50.828;6.440;2022-12-24T18:08:01;7.40;99.90
19555;DHT22;9924;50.828;6.440;2022-12-24T18:10:46;7.30;99.90
19555;DHT22;9924;50.828;6.440;2022-12-24T18:13:31;7.30;99.90
19555;DHT22;9924;50.828;6.440;2022-12-24T18:16:24;7.30;99.90
19555;DHT22;9924;50.828;6.440;2022-12-24T18:19:10;7.30;99.90
19555;DHT22;9924;50.828;6.440;2022-12-24T18:21:55;7.20;99.90
19555;DHT22;9924;50.828;6.440;2022-12-24T18:24:40;7.20;99.90
19555;DHT22;9924;50.828;6.440;2022-12-24T18:27:24;7.20;99.90
19555;DHT22;9924;50.828;6.440;2022-12-24T18:30:09;7.20;99.90
19555;DHT22;9924;50.828;6.440;2022-12-24T18:32:53;7.30;99.90
19555;DHT22;9924;50.828;6.440;2022-12-24T18:35:38;7.40;99.90
19555;DHT22;9924;50.828;6.440;2022-12-24T18:38:23;7.40;99.90
19555;DHT22;9924;50.828;6.440;2022-12-24T18:41:16;7.40;99.90
19555;DHT22;9924;50.828;6.440;2022-12-24T18:44:01;7.40;99.90
19555;DHT22;9924;50.828;6.440;2022-12-24T18:46:45;7.50;99.90
19555;DHT22;9924;50.828;6.440;2022-12-24T18:49:30;7.60;99.90
19555;DHT22;9924;50.828;6.440;2022-12-24T18:52:14;7.70;99.90
19555;DHT22;9924;50.828;6.440;2022-12-24T18:54:59;7.80;99.90
19555;DHT22;9924;50.828;6.440;2022-12-24T18:57:43;7.80;99.90
19555;DHT22;9924;50.828;6.440;2022-12-24T19:00:28;7.80;99.90
19555;DHT22;9924;50.828;6.440;2022-12-24T19:03:13;7.90;99.90
19555;DHT22;9924;50.828;6.440;2022-12-24T19:06:00;7.90;99.90
19555;DHT22;9924;50.828;6.440;2022-12-24T19:08:45;7.90;99.90
19555;DHT22;9924;50.828;6.440;2022-12-24T19:11:32;8.00;99.90
19555;DHT22;9924;50.828;6.440;2022-12-24T19:14:16;8.00;99.90
19555;DHT22;9924;50.828;6.440;2022-12-24T19:17:03;8.00;99.90
19555;DHT22;9924;50.828;6.440;2022-12-24T19:19:49;8.00;99.90
19555;DHT22;9924;50.828;6.440;2022-12-24T19:22:34;8.00;99.90
19555;DHT22;9924;50.828;6.440;2022-12-24T19:25:18;8.00;99.90
19555;DHT22;9924;50.828;6.440;2022-12-24T19:28:03;8.10;99.90
19555;DHT22;9924;50.828;6.440;2022-12-24T19:30:53;7.90;99.90
19555;DHT22;9924;50.828;6.440;2022-12-24T19:33:40;7.80;99.90